Time;durP1;ratioP1;P1;durP2;ratioP2;P2;SDS_P1;SDS_P2;PMS_P1;PMS_P2;Temp;Humidity;BMP_temperature;BMP_pressure;BME280_temperature;BME280_humidity;BME280_pressure;Samples;Min_cycle;Max_cycle;Signal;HPM_P1;HPM_P2
2024/01/29 00:02:21;;;;;;;14.17;12.43;;;;;;;6.42;44.49;100923.28;10435068;28;20322;-67
2024/01/29 00:07:23;;;;;;;18.10;13.80;;;;;;;6.09;44.69;101028.75;10434040;28;20270;-67
2024/01/29 00:12:25;;;;;;;16.97;12.67;;;;;;;6.47;44.46;100918.44;10440539;28;20246;-66
2024/01/29 00:17:26;;;;;;;16.73;13.23;;;;;;;5.99;44.44;101026.03;10442802;28;20250;-67
2024/01/29 00:22:28;;;;;;;18.00;15.77;;;;;;;4.41;46.31;101219.28;10442728;28;20331;-66
2024/01/29 00:27:30;;;;;;;21.17;17.33;;;;;;;6.02;45.18;100876.13;10439927;28;20314;-66
2024/01/29 00:32:31;;;;;;;19.83;15.93;;;;;;;5.41;46.01;100969.56;10439198;28;20239;-66
2024/01/29 00:37:33;;;;;;;19.70;15.73;;;;;;;6.21;44.72;100825.78;10442969;28;20258;-67
2024/01/29 00:42:35;;;;;;;18.87;15.73;;;;;;;5.91;44.76;100943.44;10441333;28;20355;-66
2024/01/29 00:47:37;;;;;;;16.97;14.30;;;;;;;5.29;45.61;100900.56;10441051;28;20327;-66
2024/01/29 00:52:39;;;;;;;19.27;13.50;;;;;;;5.93;44.47;100903.47;10437882;28;20317;-67
2024/01/29 00:57:40;;;;;;;20.20;15.53;;;;;;;5.18;45.11;101038.53;10439876;28;20326;-67
2024/01/29 01:02:42;;;;;;;15.57;12.90;;;;;;;5.02;45.88;101000.91;10438020;28;20263;-67
2024/01/29 01:07:44;;;;;;;17.53;13.83;;;;;;;4.51;46.69;101031.28;10438964;28;20679;-66
2024/01/29 01:12:45;;;;;;;17.40;13.30;;;;;;;5.42;45.92;100839.38;10436981;28;20249;-66
2024/01/29 01:17:47;;;;;;;19.20;13.47;;;;;;;4.94;46.30;100972.31;10440239;28;20239;-66
2024/01/29 01:22:48;;;;;;;18.53;12.10;;;;;;;5.45;45.63;100876.28;10435495;28;20246;-66
2024/01/29 01:27:53;;;;;;;17.00;12.27;;;;;;;5.57;44.90;100934.66;10433499;28;20234;-66
2024/01/29 01:32:55;;;;;;;14.80;11.40;;;;;;;6.01;44.19;100851.38;10437023;28;20232;-66
2024/01/29 01:37:57;;;;;;;15.17;12.47;;;;;;;5.82;44.30;100902.53;10436599;28;20231;-66
2024/01/29 01:42:59;;;;;;;16.70;12.87;;;;;;;5.63;45.05;100881.09;10432157;28;20311;-66
2024/01/29 01:48:00;;;;;;;17.97;13.03;;;;;;;5.78;44.46;100901.09;10418423;28;20252;-66
2024/01/29 01:53:03;;;;;;;15.83;12.70;;;;;;;5.84;44.35;100884.66;10393630;28;20803;-66
2024/01/29 01:58:06;;;;;;;17.73;12.50;;;;;;;5.80;44.36;100919.56;10392784;28;20335;-66
2024/01/29 02:03:08;;;;;;;14.97;11.73;;;;;;;5.20;45.19;100998.63;10405804;28;20293;-66
2024/01/29 02:08:10;;;;;;;18.40;12.27;;;;;;;5.77;44.44;100896.72;10419831;28;20238;-66
2024/01/29 02:13:13;;;;;;;15.43;12.83;;;;;;;5.90;44.14;100932.94;10409619;28;20242;-66
2024/01/29 02:18:15;;;;;;;17.10;13.80;;;;;;;6.17;43.57;100929.81;10435217;28;20270;-67
2024/01/29 02:23:17;;;;;;;16.03;13.10;;;;;;;5.43;44.94;101000.31;10431307;28;20607;-66
2024/01/29 02:28:18;;;;;;;17.80;13.70;;;;;;;5.10;46.03;100974.63;10430847;28;20232;-66
2024/01/29 02:33:20;;;;;;;18.60;13.77;;;;;;;4.44;46.61;101089.19;10428808;28;20236;-67
2024/01/29 02:38:22;;;;;;;19.37;12.90;;;;;;;5.02;45.54;100956.66;10412692;28;20229;-67
2024/01/29 02:43:24;;;;;;;17.90;14.10;;;;;;;4.90;45.82;100987.63;10405983;28;20242;-67
2024/01/29 02:48:25;;;;;;;20.67;14.77;;;;;;;4.80;46.33;100999.91;10430401;28;20239;-67
2024/01/29 02:53:27;;;;;;;19.10;14.83;;;;;;;5.35;45.65;100883.28;10429893;28;20234;-67
2024/01/29 02:58:31;;;;;;;17.93;14.17;;;;;;;4.31;46.36;101115.69;10428627;28;20242;-67
2024/01/29 03:03:33;;;;;;;17.67;14.00;;;;;;;3.70;48.37;100910.88;10429276;28;20326;-67
2024/01/29 03:08:35;;;;;;;18.53;15.40;;;;;;;2.70;50.27;101051.78;10411749;28;20232;-67
2024/01/29 03:13:37;;;;;;;19.27;15.47;;;;;;;3.97;48.75;100813.53;10389611;28;20254;-67
2024/01/29 03:18:39;;;;;;;17.43;14.60;;;;;;;4.13;48.16;100863.53;10409267;28;20242;-66
2024/01/29 03:23:40;;;;;;;19.27;15.47;;;;;;;3.24;49.52;100987.34;10431162;28;20258;-66
2024/01/29 03:28:42;;;;;;;18.67;15.53;;;;;;;3.63;48.64;100980.19;10433281;28;20324;-67
2024/01/29 03:33:44;;;;;;;19.53;16.03;;;;;;;4.38;47.48;100867.00;10433176;28;20330;-67
2024/01/29 03:38:45;;;;;;;19.70;14.90;;;;;;;4.49;46.74;100943.03;10432167;28;20323;-67
2024/01/29 03:43:47;;;;;;;20.57;15.53;;;;;;;4.49;46.81;100898.84;10432512;28;20244;-67
2024/01/29 03:48:49;;;;;;;19.27;15.20;;;;;;;4.85;46.44;100824.50;10439538;28;20322;-67
2024/01/29 03:53:50;;;;;;;18.47;14.97;;;;;;;4.30;47.59;100891.41;10438252;28;20691;-67
2024/01/29 03:58:52;;;;;;;20.80;15.03;;;;;;;5.77;44.16;100800.28;10418510;28;20239;-67
2024/01/29 04:03:54;;;;;;;20.00;15.63;;;;;;;5.55;44.34;100886.16;10395577;28;20244;-67
2024/01/29 04:08:56;;;;;;;18.40;14.20;;;;;;;4.84;45.23;101006.66;10391941;28;20389;-67
2024/01/29 04:13:58;;;;;;;19.17;14.67;;;;;;;4.94;45.22;100949.28;10415866;28;20236;-67
2024/01/29 04:18:59;;;;;;;18.83;16.50;;;;;;;4.90;45.24;100931.91;10412574;28;20267;-67
2024/01/29 04:24:01;;;;;;;17.77;14.43;;;;;;;5.10;44.66;100890.56;10424777;28;20668;-66
2024/01/29 04:29:02;;;;;;;18.13;15.13;;;;;;;5.04;44.67;100912.25;10424136;28;20721;-67
2024/01/29 04:34:05;;;;;;;17.00;14.00;;;;;;;4.91;44.67;100906.22;10444338;28;20239;-70
2024/01/29 04:39:07;;;;;;;17.10;13.60;;;;;;;4.78;44.59;100938.19;10442279;28;20273;-67
2024/01/29 04:44:09;;;;;;;16.57;13.43;;;;;;;4.89;43.86;100955.91;10493051;22;20239;-36
2024/01/29 04:49:10;;;;;;;25.33;18.43;;;;;;;4.20;44.51;101113.84;10478768;28;20631;-36
2024/01/29 04:54:14;;;;;;;15.90;12.60;;;;;;;3.33;47.19;101008.78;10478108;28;20321;-36
2024/01/29 04:59:17;;;;;;;17.87;13.10;;;;;;;4.71;44.48;100927.19;10486846;22;20700;-72
2024/01/29 05:04:18;;;;;;;15.93;12.83;;;;;;;5.22;44.34;100872.81;10469354;28;20285;-70
2024/01/29 05:09:20;;;;;;;17.17;13.43;;;;;;;5.14;44.23;100913.22;10456455;28;20665;-72
2024/01/29 05:14:23;;;;;;;14.67;12.77;;;;;;;5.20;44.26;100919.88;10453314;28;20239;-69
2024/01/29 05:19:25;;;;;;;17.77;14.17;;;;;;;5.28;43.82;100962.59;10435629;28;20238;-73
2024/01/29 05:24:27;;;;;;;17.37;14.07;;;;;;;5.77;43.02;100919.81;10451769;28;20257;-72
2024/01/29 05:29:29;;;;;;;15.87;14.13;;;;;;;5.25;44.14;100978.75;10453673;28;20445;-72
2024/01/29 05:34:33;;;;;;;15.97;13.63;;;;;;;5.03;44.08;101047.69;10458257;28;20242;-73
2024/01/29 05:39:35;;;;;;;18.33;13.70;;;;;;;2.23;49.97;101184.28;10434090;28;20797;-72
2024/01/29 05:44:37;;;;;;;17.37;14.47;;;;;;;4.01;47.79;100869.75;10440473;28;20256;-73
2024/01/29 05:49:38;;;;;;;17.47;14.07;;;;;;;4.96;45.53;100901.41;10450385;28;20235;-72
2024/01/29 05:54:40;;;;;;;18.20;15.60;;;;;;;5.14;45.37;100876.06;10458021;28;20753;-72
2024/01/29 05:59:42;;;;;;;19.13;15.03;;;;;;;3.15;47.63;101193.44;10447049;28;20261;-72
2024/01/29 06:04:44;;;;;;;18.47;14.87;;;;;;;4.86;45.55;100893.34;10448369;28;20321;-72
2024/01/29 06:09:45;;;;;;;18.50;15.53;;;;;;;3.64;47.24;101127.44;10450655;28;20238;-69
2024/01/29 06:14:47;;;;;;;24.67;16.17;;;;;;;3.23;49.02;101059.69;10449870;28;20245;-73
2024/01/29 06:19:49;;;;;;;18.47;15.00;;;;;;;3.47;47.74;101102.16;10447630;28;20249;-72
2024/01/29 06:25:10;;;;;;;21.10;15.97;;;;;;;3.63;47.72;101035.75;10441136;28;20706;-74
2024/01/29 06:30:12;;;;;;;21.17;15.43;;;;;;;4.30;46.50;100960.28;10444488;28;20245;-72
2024/01/29 06:35:15;;;;;;;19.83;15.40;;;;;;;4.20;46.59;101006.97;10449716;28;20243;-69
2024/01/29 06:40:17;;;;;;;19.37;16.03;;;;;;;5.46;44.54;100830.19;10443112;28;21188;-70
2024/01/29 06:45:18;;;;;;;15.93;14.03;;;;;;;5.31;44.38;100908.41;10451221;28;20230;-71
2024/01/29 06:50:20;;;;;;;19.50;14.83;;;;;;;5.37;43.98;100930.94;10446207;28;21016;-72
2024/01/29 06:55:23;;;;;;;18.07;16.17;;;;;;;5.34;44.32;100950.63;10445476;28;20234;-72
2024/01/29 07:00:24;;;;;;;19.47;16.00;;;;;;;5.51;43.99;100917.44;10442152;28;20238;-71
2024/01/29 07:05:26;;;;;;;19.97;16.03;;;;;;;5.50;43.93;100943.13;10472966;28;20261;-71
2024/01/29 07:10:28;;;;;;;21.17;16.83;;;;;;;5.79;43.55;100932.00;10447148;28;20231;-72
2024/01/29 07:15:30;;;;;;;22.97;17.47;;;;;;;5.64;43.58;101007.63;10443303;28;20231;-71
2024/01/29 07:20:38;;;;;;;22.43;17.30;;;;;;;5.25;44.03;101060.16;10473705;28;20805;-70
2024/01/29 07:25:40;;;;;;;22.00;16.50;;;;;;;5.31;44.62;101001.28;10452933;28;20519;-71
2024/01/29 07:30:41;;;;;;;21.93;16.40;;;;;;;4.49;45.79;101137.41;10426090;28;20231;-72
2024/01/29 07:35:43;;;;;;;23.10;17.83;;;;;;;4.07;46.99;101170.44;10438857;28;20231;-72
2024/01/29 07:40:45;;;;;;;21.83;19.37;;;;;;;4.72;46.26;101047.38;10425247;28;20713;-72
2024/01/29 07:45:46;;;;;;;20.10;16.67;;;;;;;4.82;46.35;101028.97;10439915;28;20780;-73
2024/01/29 07:50:48;;;;;;;20.57;16.43;;;;;;;5.06;45.95;101020.94;10439753;28;20238;-71
2024/01/29 07:55:50;;;;;;;19.67;16.27;;;;;;;5.60;45.14;100975.13;10440054;28;20622;-71
2024/01/29 08:00:51;;;;;;;19.27;15.23;;;;;;;5.86;44.69;100988.97;10451872;28;20364;-71
2024/01/29 08:05:53;;;;;;;19.83;15.57;;;;;;;6.05;44.59;101008.75;10453127;28;20231;-72
2024/01/29 08:10:59;;;;;;;21.40;15.90;;;;;;;6.22;44.52;100973.63;10457759;28;20231;-71
2024/01/29 08:16:00;;;;;;;19.43;16.17;;;;;;;5.96;44.94;101078.56;10437383;28;20287;-72
2024/01/29 08:21:03;;;;;;;28.90;20.87;;;;;;;6.31;44.65;100992.47;10445394;28;20278;-68
2024/01/29 08:26:06;;;;;;;25.33;19.57;;;;;;;5.46;45.56;101146.13;10441659;28;20320;-72
2024/01/29 08:31:09;;;;;;;22.10;18.10;;;;;;;5.27;46.09;101148.50;10443212;28;20250;-72
2024/01/29 08:36:11;;;;;;;16.63;14.83;;;;;;;4.43;49.20;101094.59;10424404;28;20636;-71
2024/01/29 08:41:13;;;;;;;18.23;14.83;;;;;;;6.57;45.65;100980.50;10442392;28;20732;-71
2024/01/29 08:46:15;;;;;;;34.57;24.57;;;;;;;5.88;47.66;100933.91;10425023;28;20235;-71
2024/01/29 08:51:17;;;;;;;17.87;15.43;;;;;;;5.62;47.53;101031.63;10450809;28;20236;-71
2024/01/29 08:56:20;;;;;;;18.00;15.93;;;;;;;5.25;49.25;101012.38;10536514;28;20591;-71
2024/01/29 09:01:22;;;;;;;18.23;15.40;;;;;;;5.24;49.19;101042.56;10517366;28;20222;-70
2024/01/29 09:06:23;;;;;;;17.30;13.17;;;;;;;5.26;49.41;101045.94;10537038;28;20728;-71
2024/01/29 09:11:25;;;;;;;13.97;12.57;;;;;;;6.18;47.99;100988.16;10538566;28;20276;-71
2024/01/29 09:16:27;;;;;;;21.73;18.50;;;;;;;4.36;50.68;101179.84;10535389;28;20202;-71
2024/01/29 09:21:34;;;;;;;15.90;13.47;;;;;;;3.97;52.79;101085.50;10535645;28;20253;-71
2024/01/29 09:26:35;;;;;;;16.13;13.83;;;;;;;5.51;49.10;101167.00;10511222;28;20314;-72
2024/01/29 09:31:37;;;;;;;20.63;15.70;;;;;;;5.69;49.05;101083.28;10531029;28;20645;-71
2024/01/29 09:36:39;;;;;;;19.13;15.03;;;;;;;5.85;48.68;101074.94;10512514;28;20249;-70
2024/01/29 09:41:42;;;;;;;18.90;14.57;;;;;;;5.82;48.27;101194.75;10509869;28;20243;-71
2024/01/29 09:46:46;;;;;;;14.23;12.67;;;;;;;6.17;48.05;101167.22;10510317;28;20631;-70
2024/01/29 09:51:48;;;;;;;14.87;12.93;;;;;;;6.53;48.23;101037.59;10538610;28;20609;-71
2024/01/29 09:56:50;;;;;;;15.33;13.20;;;;;;;5.51;48.86;101173.16;10539008;28;20628;-71
2024/01/29 10:01:52;;;;;;;17.63;14.73;;;;;;;6.57;48.70;100945.94;10535917;28;20234;-71
2024/01/29 10:06:54;;;;;;;18.33;13.93;;;;;;;5.81;49.75;100998.28;10532369;28;21357;-70
2024/01/29 10:11:57;;;;;;;14.57;12.43;;;;;;;6.01;49.21;100978.06;10536145;28;20266;-69
2024/01/29 10:16:58;;;;;;;15.30;12.03;;;;;;;5.13;50.24;101123.84;10541409;28;20222;-71
2024/01/29 10:22:00;;;;;;;14.37;12.43;;;;;;;5.83;47.83;101254.03;10522512;28;20240;-71
2024/01/29 10:27:06;;;;;;;16.93;12.80;;;;;;;7.52;47.03;100986.63;10526436;28;20755;-71
2024/01/29 10:32:08;;;;;;;17.43;13.67;;;;;;;7.23;46.75;101154.28;10512718;28;20223;-70
2024/01/29 10:37:10;;;;;;;16.50;13.27;;;;;;;7.46;46.59;101117.69;10526421;28;20260;-70
2024/01/29 10:42:12;;;;;;;15.03;12.63;;;;;;;8.00;46.09;101059.75;10532188;28;20295;-71
2024/01/29 10:47:24;;;;;;;14.97;12.93;;;;;;;8.09;46.19;101024.28;10527939;28;20313;-71
2024/01/29 10:52:27;;;;;;;16.07;12.50;;;;;;;8.35;45.32;101075.25;10542572;27;20910;-71
2024/01/29 10:57:30;;;;;;;19.17;13.53;;;;;;;7.01;47.49;101227.09;10507387;28;20239;-71
2024/01/29 11:06:38;;;;;;;15.27;12.27;;;;;;;5.84;51.41;100944.88;10437583;28;20760;-72
2024/01/29 11:11:43;;;;;;;16.20;12.50;;;;;;;5.03;53.27;101018.50;10429636;28;20255;-72
2024/01/29 11:16:44;;;;;;;14.50;11.80;;;;;;;5.77;50.73;101056.09;10460869;28;20223;-72
2024/01/29 11:21:50;;;;;;;14.23;12.17;;;;;;;6.66;49.69;100970.06;10464031;28;20224;-71
2024/01/29 11:26:52;;;;;;;12.90;11.50;;;;;;;6.28;49.94;101046.75;10464304;28;20285;-71
2024/01/29 11:31:59;;;;;;;16.37;11.60;;;;;;;7.29;48.80;100911.44;10461635;28;20259;-71
2024/01/29 11:37:01;;;;;;;14.90;11.60;;;;;;;7.20;48.86;100922.91;10451269;28;20314;-71
2024/01/29 11:42:02;;;;;;;12.63;10.60;;;;;;;7.04;48.57;101093.72;10464554;28;20257;-72
2024/01/29 11:47:08;;;;;;;12.73;11.00;;;;;;;8.36;46.95;100982.75;10461099;28;20243;-71
2024/01/29 11:52:10;;;;;;;12.63;11.30;;;;;;;7.67;47.99;101043.06;10458176;28;20555;-71
2024/01/29 11:57:12;;;;;;;15.23;11.80;;;;;;;7.10;48.36;101178.41;10450923;28;20231;-71
2024/01/29 12:02:13;;;;;;;12.93;10.83;;;;;;;8.37;47.52;100966.63;10451319;28;20277;-72
2024/01/29 12:07:16;;;;;;;14.07;11.27;;;;;;;8.22;47.51;100989.34;10484830;28;20702;-72
2024/01/29 12:12:18;;;;;;;15.43;12.07;;;;;;;8.21;48.10;100967.16;10476598;28;20372;-72
2024/01/29 12:17:23;;;;;;;12.47;10.97;;;;;;;7.39;47.89;101204.41;10464080;28;20227;-71
2024/01/29 12:22:25;;;;;;;14.87;11.33;;;;;;;8.70;48.11;100891.56;10457207;28;20239;-71
2024/01/29 12:27:27;;;;;;;12.10;10.27;;;;;;;7.69;48.44;101068.59;10454250;28;20237;-71
2024/01/29 12:32:29;;;;;;;12.73;10.20;;;;;;;9.46;45.47;100992.91;10456172;28;20240;-71
2024/01/29 12:37:31;;;;;;;13.27;10.47;;;;;;;9.06;46.22;101070.66;10457813;28;20310;-72
2024/01/29 12:42:32;;;;;;;14.13;11.27;;;;;;;7.92;48.34;101167.88;10448214;28;20249;-72
2024/01/29 12:47:34;;;;;;;14.17;11.43;;;;;;;8.66;47.38;101113.34;10450671;28;20224;-71
2024/01/29 12:52:36;;;;;;;13.93;10.87;;;;;;;9.51;46.81;100945.22;10453650;28;20266;-72
2024/01/29 12:57:37;;;;;;;12.97;11.17;;;;;;;9.97;45.29;101014.75;10454984;28;20314;-71
2024/01/29 13:02:39;;;;;;;15.07;11.20;;;;;;;9.43;46.07;101046.66;10453223;28;20892;-70
2024/01/29 13:07:41;;;;;;;12.17;10.87;;;;;;;7.98;47.85;101169.16;10459075;28;20239;-72
2024/01/29 13:12:43;;;;;;;13.23;10.87;;;;;;;9.22;46.29;101046.88;10457671;28;20235;-71
2024/01/29 13:17:45;;;;;;;14.07;11.30;;;;;;;8.74;47.42;101019.25;10460052;28;20322;-71
2024/01/29 13:22:46;;;;;;;11.57;10.37;;;;;;;9.74;46.05;101036.53;10458364;28;20660;-71
2024/01/29 13:27:48;;;;;;;15.47;11.43;;;;;;;9.20;46.05;101128.97;10452548;28;20920;-71
2024/01/29 13:32:50;;;;;;;15.53;12.13;;;;;;;9.99;45.97;101015.47;10453973;28;20235;-71
2024/01/29 13:37:53;;;;;;;12.97;11.03;;;;;;;9.22;46.98;101076.25;10441718;28;20263;-70
2024/01/29 13:42:56;;;;;;;15.43;10.67;;;;;;;9.92;45.33;101111.50;10449716;28;20592;-71
2024/01/29 13:47:58;;;;;;;17.07;12.87;;;;;;;9.51;46.77;101028.06;10463074;28;20277;-71
2024/01/29 13:53:01;;;;;;;13.87;11.20;;;;;;;9.21;46.98;101111.94;10450603;28;20683;-70
2024/01/29 13:58:03;;;;;;;13.70;11.23;;;;;;;8.60;47.50;101139.75;10452216;28;20231;-70
2024/01/29 14:03:04;;;;;;;12.93;10.70;;;;;;;10.10;44.91;101094.66;10439571;28;20614;-72
2024/01/29 14:08:06;;;;;;;12.33;10.73;;;;;;;10.25;45.23;100987.97;10450241;28;20250;-71
2024/01/29 14:13:08;;;;;;;12.13;10.70;;;;;;;11.05;44.04;100947.75;10456860;28;20916;-71
2024/01/29 14:18:10;;;;;;;13.37;10.87;;;;;;;11.28;43.40;100998.13;10459112;28;20238;-71
2024/01/29 14:23:12;;;;;;;11.50;10.03;;;;;;;10.92;43.42;101079.44;10448345;28;20317;-71
2024/01/29 14:28:16;;;;;;;12.50;10.77;;;;;;;10.48;44.55;101012.44;10448298;28;20256;-70
2024/01/29 14:33:17;;;;;;;13.00;10.60;;;;;;;10.93;43.71;101037.41;10432020;28;20238;-72
2024/01/29 14:38:19;;;;;;;12.80;10.87;;;;;;;9.29;46.73;101025.75;10446940;28;20250;-72
2024/01/29 14:43:21;;;;;;;15.03;11.10;;;;;;;10.81;43.79;100986.78;10452969;28;20311;-70
2024/01/29 14:48:23;;;;;;;15.50;12.90;;;;;;;9.66;46.22;101038.28;10450190;28;20240;-68
2024/01/29 14:53:24;;;;;;;14.10;11.40;;;;;;;10.38;44.21;101094.59;10447449;28;20690;-69
2024/01/29 14:58:26;;;;;;;17.80;11.00;;;;;;;11.03;43.48;101019.41;10453428;28;20235;-69
2024/01/29 15:05:22;;;;;;;14.83;9.70;;;;;;;8.03;48.31;101033.69;10505692;27;21190;-70
2024/01/29 15:10:24;;;;;;;14.17;10.97;;;;;;;9.50;45.91;101053.13;10512605;28;20223;-71
2024/01/29 15:15:26;;;;;;;14.73;11.07;;;;;;;8.14;47.99;101058.53;10509260;28;20234;-71
2024/01/29 15:20:29;;;;;;;16.10;11.97;;;;;;;9.61;46.48;100914.94;10510909;28;20301;-71
2024/01/29 15:25:30;;;;;;;14.03;11.97;;;;;;;9.69;45.70;100976.50;10508832;28;20311;-72
2024/01/29 15:30:35;;;;;;;11.67;9.70;;;;;;;8.91;46.87;101057.75;10508900;28;20250;-72
2024/01/29 15:35:36;;;;;;;14.00;11.80;;;;;;;10.12;44.64;100935.72;10498913;28;20958;-71
2024/01/29 15:40:40;;;;;;;15.23;13.23;;;;;;;10.43;44.36;101012.06;10499846;28;20238;-71
2024/01/29 15:45:43;;;;;;;13.17;11.77;;;;;;;9.98;44.99;101101.19;10506119;28;20235;-70
2024/01/29 15:50:44;;;;;;;15.33;11.40;;;;;;;9.78;45.02;101071.84;10510171;28;20376;-70
2024/01/29 15:55:46;;;;;;;21.97;14.90;;;;;;;10.25;44.30;101034.28;10505947;28;20234;-71
2024/01/29 16:00:48;;;;;;;17.23;13.00;;;;;;;10.13;44.25;101127.28;10506434;28;20238;-73
2024/01/29 16:05:49;;;;;;;14.77;11.13;;;;;;;10.10;44.22;101055.38;10504323;28;20245;-70
2024/01/29 16:10:51;;;;;;;12.37;10.53;;;;;;;9.77;44.46;101155.72;10508680;28;20222;-70
2024/01/29 16:15:53;;;;;;;12.70;10.77;;;;;;;10.04;44.55;101065.81;10479752;28;20239;-69
2024/01/29 16:20:54;;;;;;;14.10;10.90;;;;;;;9.91;44.34;101143.72;10480443;28;20231;-70
2024/01/29 16:25:56;;;;;;;15.10;11.93;;;;;;;9.11;46.48;101049.69;10474849;28;20237;-69
2024/01/29 16:30:58;;;;;;;13.93;12.43;;;;;;;9.30;46.46;101008.72;10480175;28;20231;-68
2024/01/29 16:35:59;;;;;;;15.87;13.40;;;;;;;9.78;45.77;101002.34;10470702;28;20231;-67
2024/01/29 16:41:02;;;;;;;15.27;13.70;;;;;;;9.91;45.03;100996.66;10480806;28;20320;-72
2024/01/29 16:46:04;;;;;;;16.23;13.23;;;;;;;9.76;45.03;101089.84;10416595;22;20240;-35
2024/01/29 16:51:10;;;;;;;13.23;11.30;;;;;;;8.00;47.30;101209.03;10409552;28;20742;-36
2024/01/29 16:56:12;;;;;;;14.37;12.20;;;;;;;9.84;44.59;101028.50;10397126;28;20367;-44
2024/01/29 17:01:14;;;;;;;17.33;13.27;;;;;;;10.17;44.16;101017.31;10382446;28;20887;-43
2024/01/29 17:06:16;;;;;;;19.83;14.93;;;;;;;10.07;44.09;101060.16;10395153;28;20248;-44
2024/01/29 17:11:18;;;;;;;28.67;21.63;;;;;;;9.86;44.07;101095.19;10402747;28;20616;-44
2024/01/29 17:16:21;;;;;;;36.80;27.23;;;;;;;8.92;45.70;101179.56;10392963;28;20231;-44
2024/01/29 17:21:23;;;;;;;19.23;14.50;;;;;;;7.73;47.55;101162.44;10404376;28;20285;-43
2024/01/29 17:26:25;;;;;;;17.20;14.53;;;;;;;9.18;45.52;100990.22;10367709;28;20263;-44
2024/01/29 17:31:27;;;;;;;15.77;12.17;;;;;;;8.84;45.96;101067.25;10398153;28;20295;-44
2024/01/29 17:36:29;;;;;;;14.00;12.50;;;;;;;9.52;44.58;101039.59;10389771;28;20236;-44
2024/01/29 17:41:31;;;;;;;13.63;12.20;;;;;;;9.39;43.88;101146.78;10404838;28;20676;-44
2024/01/29 17:46:33;;;;;;;13.07;11.63;;;;;;;9.42;43.97;101114.44;10395826;28;20301;-44
2024/01/29 17:51:39;;;;;;;15.37;11.77;;;;;;;9.53;44.79;101017.22;10397778;28;20208;-43
2024/01/29 17:56:41;;;;;;;13.60;10.97;;;;;;;9.16;44.76;101075.00;10393983;28;20244;-43
2024/01/29 18:01:43;;;;;;;12.90;11.27;;;;;;;10.01;43.37;101031.38;10397948;28;20330;-44
2024/01/29 18:06:46;;;;;;;14.50;11.27;;;;;;;9.31;44.54;101114.59;10397621;28;20626;-44
2024/01/29 18:11:49;;;;;;;15.43;13.17;;;;;;;9.04;45.34;101124.19;10381294;28;20251;-43
2024/01/29 18:16:51;;;;;;;17.07;13.73;;;;;;;7.89;47.47;101124.66;10398191;28;20262;-43
2024/01/29 18:21:53;;;;;;;19.13;15.43;;;;;;;8.40;45.86;101118.34;10396664;28;20323;-43
2024/01/29 18:26:56;;;;;;;13.83;11.80;;;;;;;8.64;45.74;101119.78;10393968;28;20711;-44
2024/01/29 18:31:58;;;;;;;15.10;11.87;;;;;;;8.84;44.78;101132.19;10398561;28;20235;-44
2024/01/29 18:36:59;;;;;;;13.97;12.03;;;;;;;6.62;49.33;101145.03;10397567;28;20235;-44
2024/01/29 18:42:03;;;;;;;13.40;11.40;;;;;;;7.56;47.55;101073.31;10394216;28;20690;-44
2024/01/29 18:47:05;;;;;;;18.23;14.43;;;;;;;6.65;48.73;101168.72;10395623;28;20255;-43
2024/01/29 18:52:06;;;;;;;13.83;11.60;;;;;;;7.61;47.35;101023.16;10395635;28;20240;-43
2024/01/29 18:57:09;;;;;;;13.50;12.10;;;;;;;7.25;48.11;101075.09;10395176;28;20241;-43
2024/01/29 19:02:11;;;;;;;12.70;10.87;;;;;;;6.89;48.79;101050.63;10394040;28;20761;-44
2024/01/29 19:07:12;;;;;;;14.17;11.73;;;;;;;7.02;48.56;101035.31;10393155;28;20228;-43
2024/01/29 19:12:14;;;;;;;14.30;11.37;;;;;;;8.03;46.48;101019.47;10393215;28;20247;-43
2024/01/29 19:17:16;;;;;;;14.73;10.57;;;;;;;8.26;45.47;101156.09;10393189;28;20243;-44
2024/01/29 19:22:18;;;;;;;13.23;10.57;;;;;;;7.86;46.55;101139.09;10401066;28;20330;-44
2024/01/29 19:27:20;;;;;;;17.13;12.63;;;;;;;9.30;44.42;100992.69;10393839;28;20258;-43
2024/01/29 19:32:22;;;;;;;19.30;14.00;;;;;;;8.81;45.22;101014.19;10403707;28;20347;-43
2024/01/29 19:37:25;;;;;;;14.50;11.17;;;;;;;8.79;45.65;100978.78;10386047;28;20237;-44
2024/01/29 19:42:32;;;;;;;15.27;11.10;;;;;;;9.39;43.83;101042.59;10394491;28;20285;-44
2024/01/29 19:47:33;;;;;;;11.73;10.33;;;;;;;8.43;45.82;101054.06;10392522;28;20244;-43
2024/01/29 19:52:35;;;;;;;15.67;10.97;;;;;;;7.16;47.42;101192.03;10397125;28;20247;-43
2024/01/29 19:57:39;;;;;;;14.47;10.83;;;;;;;8.70;45.32;101022.34;10400904;28;20704;-44
2024/01/29 20:02:41;;;;;;;12.00;10.67;;;;;;;7.68;46.87;101112.22;10403908;28;20232;-43
2024/01/29 20:07:43;;;;;;;12.17;10.37;;;;;;;7.18;48.08;101106.72;10404545;28;20233;-42
2024/01/29 20:12:45;;;;;;;12.73;11.33;;;;;;;8.29;46.69;100947.81;10403776;28;20712;-42
2024/01/29 20:17:46;;;;;;;12.03;10.13;;;;;;;9.37;44.18;101000.00;10399386;28;20241;-43
2024/01/29 20:22:48;;;;;;;11.63;10.17;;;;;;;8.76;44.27;101148.06;10404483;28;20246;-43
2024/01/29 20:27:50;;;;;;;14.03;10.60;;;;;;;7.57;46.74;101146.06;10405311;28;20649;-43
2024/01/29 20:32:53;;;;;;;15.07;11.60;;;;;;;7.74;46.13;101186.25;10403522;28;20609;-43
2024/01/29 20:37:55;;;;;;;14.73;10.70;;;;;;;7.76;47.01;101062.72;10402964;28;20236;-42
2024/01/29 20:43:00;;;;;;;11.83;10.47;;;;;;;7.13;48.00;101114.25;10396524;28;20375;-44
2024/01/29 20:48:02;;;;;;;20.37;11.20;;;;;;;8.64;45.76;100960.56;10395897;28;20729;-42
2024/01/29 20:53:03;;;;;;;16.07;13.00;;;;;;;8.57;45.49;101028.81;10407909;28;20670;-42
2024/01/29 20:58:05;;;;;;;13.73;10.80;;;;;;;8.59;45.19;101021.50;10399411;28;20200;-40
2024/01/29 21:03:07;;;;;;;15.43;11.40;;;;;;;8.07;45.88;101072.41;10402297;28;20322;-42
2024/01/29 21:08:12;;;;;;;12.77;10.17;;;;;;;8.32;45.83;100992.00;10399692;28;20581;-40
2024/01/29 21:13:14;;;;;;;12.40;10.13;;;;;;;7.83;46.08;101118.03;10407935;28;20231;-43
2024/01/29 21:18:16;;;;;;;13.07;10.60;;;;;;;8.83;44.96;100986.34;10396515;28;20597;-42
2024/01/29 21:23:18;;;;;;;12.53;9.93;;;;;;;7.07;47.34;101166.22;10401231;28;20236;-42
2024/01/29 21:28:20;;;;;;;14.60;10.50;;;;;;;7.95;46.73;100984.66;10398431;28;20670;-42
2024/01/29 21:33:22;;;;;;;14.30;11.27;;;;;;;7.90;46.22;101030.41;10401215;28;20236;-43
2024/01/29 21:38:24;;;;;;;12.00;10.07;;;;;;;8.16;45.59;101037.91;10387984;28;20342;-43
2024/01/29 21:43:30;;;;;;;15.57;12.47;;;;;;;7.95;45.58;101147.25;10403272;28;20249;-42
2024/01/29 21:48:32;;;;;;;16.37;12.87;;;;;;;8.53;44.95;101022.06;10382486;28;20316;-43
2024/01/29 21:53:34;;;;;;;15.80;12.37;;;;;;;7.76;45.69;101156.00;10404948;28;20236;-42
2024/01/29 21:58:36;;;;;;;13.60;10.60;;;;;;;7.42;46.39;101194.34;10396102;28;20319;-42
2024/01/29 22:03:38;;;;;;;15.40;11.13;;;;;;;7.77;46.04;101128.38;10397531;28;20283;-42
2024/01/29 22:08:39;;;;;;;13.50;11.17;;;;;;;8.68;44.68;100993.13;10398273;28;20784;-42
2024/01/29 22:13:41;;;;;;;13.83;11.20;;;;;;;8.37;44.76;101075.13;10398346;28;20863;-42
2024/01/29 22:18:43;;;;;;;15.80;12.53;;;;;;;8.47;44.78;101007.47;10406818;28;20232;-43
2024/01/29 22:23:46;;;;;;;16.00;12.50;;;;;;;7.88;46.06;101043.00;10397210;28;20243;-42
2024/01/29 22:28:48;;;;;;;17.30;15.03;;;;;;;8.03;45.95;101019.47;10381240;28;20235;-42
2024/01/29 22:33:50;;;;;;;15.93;11.87;;;;;;;6.40;49.15;101168.03;10396113;28;20232;-43
2024/01/29 22:38:52;;;;;;;18.50;13.30;;;;;;;7.68;46.78;101037.59;10391428;28;20232;-42
2024/01/29 22:43:53;;;;;;;17.67;13.57;;;;;;;6.76;49.00;101062.28;10397628;28;20236;-42
2024/01/29 22:48:56;;;;;;;17.47;13.33;;;;;;;7.75;46.76;100984.63;10396273;28;20229;-43
2024/01/29 22:53:58;;;;;;;16.67;12.60;;;;;;;8.52;45.02;100974.19;10397473;28;20709;-42
2024/01/29 22:59:00;;;;;;;15.07;12.70;;;;;;;8.44;44.81;101015.75;10377587;28;20241;-43